Airfield :
LOGIN :

Register | Disclaimer

   EN    FR    IT 

 










Legend :    VFR   Marginal VFR   IFR   Intensive IFR   Very Intensive IFR
Visi :
Ceiling :
>= 8 km
>= 3000ft
5 to 8 km
1000 to 3000 ft
1500m to 5 km
500 to 1000 ft
800 to 1500m
200 to 500 ft
< 800m
< 200 ft
Symbols :   Thunderstorms  Fog  Heavy snow  Heavy precipitations  Wind > 20 kt
SIGMETs :     Misc.  Thunderstorms  Icing  Turbulence  Mountain Waves  Volcanic Ashes







- Airport Elevation : 326 ft
- IATA code : LCG
- Download approach charts


LECO - A Coruna

CURRENT METAR :
  • 190600Z 19002KT 0400 R21/1900N R03/1500U BCFG NSC 14/14 Q1017 NOSIG

EXPIRED METARs :
  • 190530Z 19002KT 0300 R21/P2000 R03/0450N BCFG NSC 15/15 Q1017 NOSIG
  • 190500Z 18003KT 0300 R21/1900N R03/P2000 BCFG NSC 14/14 Q1017 NOSIG
  • 190437Z 19002KT 0400 R21/P2000 R03/P2000 BCFG NSC 15/15 Q1017 NOSIG
  • 190430Z 17001KT 9999 0500E BCFG NSC 15/15 Q1017 TEMPO 3000 BR
  • 190400Z 19001KT 9999 2000E BCFG NSC 15/15 Q1017 TEMPO 4500 BR
  • 190330Z 19002KT 9999 2000E BCFG NSC 16/16 Q1017 NOSIG

TAF AMD TAF LECO
Valid from the 19 at 04:00 until the 20 at 03:00 UTC


190439Z 1904/2003 VRB05KT 9999 FEW030 TX27/1915Z TN15/1906Z
TEMPO 1904/1909 3000 BR
TEMPO 1904/1909 0800 FG VV001
TEMPO 1912/1918 01010KT
TEMPO 2000/2003 1500 BCFG BKN005
No reported NOTAMs for that airfield.



MET'MAP, your aeronautical weather chart ! - Copyright ORBIFLY December 2007 - Disclaimer

ORBIFLY MET'MAP TEAM :

Programming & Development : Alexandra Zaïnal
Concept & Development : Baudouin d'Aumeries
Co-Development & Prog : Marc-Olivier Méhu
Technical & hardware support : Manuel Goepfert

Contact : metmap@orbifly.com




SOURCES & CREDITS :

   NOAA